Time;durP1;ratioP1;P1;durP2;ratioP2;P2;SDS_P1;SDS_P2;PMS_P1;PMS_P2;Temp;Humidity;BMP_temperature;BMP_pressure;BME280_temperature;BME280_humidity;BME280_pressure;Samples;Min_cycle;Max_cycle;Signal;HPM_P1;HPM_P2
2022/05/15 08:32:00;;;;;;;11.32;3.47;;;24.60;61.60;;;26.53;36.80;167555.88;723933;23;21551;-83
2022/05/15 08:34:26;;;;;;;10.00;3.47;;;24.70;59.90;;;26.81;36.53;167630.06;4967494;28;20051;-84
2022/05/15 08:38:27;;;;;;;8.85;3.03;;;24.90;59.00;;;27.68;35.76;167862.09;4978328;28;20031;-90
2022/05/15 08:49:22;;;;;;;9.23;3.13;;;26.20;57.40;;;27.22;35.66;167739.34;4947385;29;20059;-90
2022/05/15 09:13:25;;;;;;;8.15;2.97;;;25.30;55.80;;;27.38;35.08;167782.50;4987161;28;20054;-85
2022/05/15 09:16:01;;;;;;;9.93;3.20;;;25.50;56.20;;;27.38;35.20;167781.13;4985721;28;20034;-86
2022/05/15 09:18:30;;;;;;;7.85;3.25;;;25.60;56.20;;;27.14;35.10;167717.72;4985156;28;20023;-84
2022/05/15 09:21:17;;;;;;;9.60;3.53;;;25.40;55.80;;;27.16;35.67;167723.16;4990023;28;20054;-86
2022/05/15 09:24:06;;;;;;;11.80;3.03;;;25.60;55.70;;;27.08;35.33;167702.91;4987564;28;20033;-86
2022/05/15 09:26:47;;;;;;;9.07;3.60;;;25.40;56.00;;;26.98;35.74;167674.56;5004085;28;20037;-83
2022/05/15 09:29:27;;;;;;;9.80;3.70;;;25.40;56.00;;;27.20;36.28;167735.25;5005056;28;20031;-84
2022/05/15 09:31:53;;;;;;;9.85;3.25;;;25.60;56.90;;;27.72;34.97;167872.91;5000058;28;20034;-82
2022/05/15 09:34:36;;;;;;;9.05;3.42;;;25.90;56.30;;;27.96;34.30;167937.69;4982059;28;20019;-83
2022/05/15 09:40:09;;;;;;;7.38;2.60;;;26.00;55.20;;;28.50;33.35;168082.09;4985565;28;20029;-84
2022/05/15 09:45:27;;;;;;;6.78;2.67;;;26.60;54.80;;;28.89;32.16;168184.72;4987201;28;20093;-84
2022/05/15 09:47:53;;;;;;;12.00;3.38;;;26.90;52.30;;;28.65;32.52;168121.22;5002734;28;20454;-83
2022/05/15 09:50:55;;;;;;;10.32;2.50;;;26.80;52.80;;;28.94;32.84;168198.19;4984456;28;20034;-83
2022/05/15 09:53:41;;;;;;;12.57;3.30;;;27.00;53.10;;;28.98;32.29;168209.00;4983381;28;20023;-84
2022/05/15 09:56:34;;;;;;;12.73;3.55;;;27.20;52.40;;;28.53;32.60;168090.19;5001753;28;20553;-85
2022/05/15 09:59:13;;;;;;;7.75;2.95;;;27.00;53.20;;;28.62;33.60;168114.47;5001510;28;20027;-85
2022/05/15 10:01:57;;;;;;;10.48;3.38;;;26.90;53.20;;;29.37;32.00;168314.38;4999420;28;20026;-84
2022/05/15 10:04:48;;;;;;;8.32;3.05;;;27.30;52.50;;;28.76;33.08;168152.34;4981001;28;20035;-85
2022/05/15 10:07:46;;;;;;;9.98;3.50;;;27.10;52.80;;;28.98;32.48;168209.00;4999328;28;20031;-85
2022/05/15 10:10:24;;;;;;;11.45;3.25;;;27.20;52.90;;;28.48;32.50;168076.66;4994590;28;20027;-87
2022/05/15 10:13:11;;;;;;;14.45;3.05;;;26.80;52.40;;;28.71;33.76;168138.81;4980453;28;20062;-83
2022/05/15 10:15:51;;;;;;;12.90;3.33;;;26.90;54.00;;;29.19;33.07;168267.03;4982366;28;20033;-85
2022/05/15 10:18:30;;;;;;;8.00;2.83;;;27.20;53.20;;;28.46;34.01;168071.28;4983250;28;20087;-85
2022/05/15 10:21:00;;;;;;;9.90;3.15;;;27.10;53.30;;;28.67;32.81;168126.69;4982403;28;20066;-81
2022/05/15 10:23:47;;;;;;;10.32;2.70;;;27.00;52.40;;;29.27;32.56;168288.72;4981264;28;20042;-87
2022/05/15 10:26:41;;;;;;;12.15;2.97;;;27.20;52.70;;;29.52;32.00;168354.84;4982840;28;20031;-84
2022/05/15 10:29:26;;;;;;;9.13;2.90;;;27.60;51.90;;;29.61;32.33;168377.78;4981134;28;20031;-84
2022/05/15 10:32:10;;;;;;;7.15;2.80;;;27.60;53.00;;;29.51;31.72;168350.81;4980211;28;20023;-84
2022/05/15 10:34:36;;;;;;;10.57;3.38;;;27.40;51.70;;;28.77;33.18;168153.63;4983657;28;20034;-84
2022/05/15 10:37:38;;;;;;;9.85;3.17;;;27.20;52.60;;;28.97;33.34;168206.28;4981530;28;20037;-83
2022/05/15 10:41:07;;;;;;;9.68;3.38;;;27.30;53.30;;;29.14;32.39;168252.19;4983686;28;20031;-84
2022/05/15 10:43:59;;;;;;;10.23;3.63;;;27.30;52.30;;;29.37;32.89;168314.38;4958960;29;20411;-81
2022/05/15 10:46:55;;;;;;;12.05;3.80;;;27.50;52.50;;;29.46;32.21;168338.66;4981531;28;20034;-85
2022/05/15 10:49:37;;;;;;;9.20;2.90;;;27.70;51.80;;;29.25;33.13;168283.28;4981016;28;20038;-83
2022/05/15 10:52:38;;;;;;;9.30;2.75;;;27.50;52.30;;;29.34;32.29;168306.28;4995707;28;20745;-85
2022/05/15 10:58:47;;;;;;;7.78;2.75;;;27.60;52.00;;;29.40;30.38;168322.47;4980343;28;20099;-85
2022/05/15 11:01:55;;;;;;;11.20;2.90;;;27.70;49.20;;;30.14;30.66;168519.66;4986786;28;20030;-85
2022/05/15 11:04:52;;;;;;;9.55;3.20;;;28.00;51.00;;;29.98;31.40;168476.44;4982858;28;20042;-88
2022/05/15 11:08:40;;;;;;;9.25;3.10;;;28.20;50.40;;;29.86;31.44;168444.03;4997081;28;20085;-86
2022/05/15 11:11:35;;;;;;;10.05;3.13;;;28.00;50.60;;;29.37;32.64;168314.38;4963491;28;20043;-85
2022/05/15 11:14:30;;;;;;;10.43;3.23;;;27.90;51.70;;;29.45;32.60;168335.94;4963362;28;20058;-84
2022/05/15 11:17:14;;;;;;;6.75;2.78;;;27.80;52.00;;;29.74;31.98;168414.25;4966389;28;20501;-84
2022/05/15 11:19:46;;;;;;;7.95;3.13;;;28.10;51.10;;;30.25;31.66;168550.69;4961698;28;20050;-82
2022/05/15 11:22:44;;;;;;;7.60;2.72;;;28.30;51.20;;;30.01;30.99;168484.53;4960382;28;20039;-84
2022/05/15 11:25:56;;;;;;;10.43;3.60;;;28.40;50.00;;;29.31;31.96;168296.81;4976825;28;20195;-84
2022/05/15 11:28:49;;;;;;;12.38;3.63;;;28.00;50.30;;;29.76;32.91;168418.34;4961177;28;20065;-86
2022/05/15 11:31:30;;;;;;;13.63;3.85;;;28.20;52.20;;;29.22;31.86;168273.78;4959724;28;20479;-88
2022/05/15 11:34:03;;;;;;;7.70;3.00;;;27.90;50.10;;;28.86;32.26;168177.97;4976710;28;20031;-85
2022/05/15 11:36:42;;;;;;;10.02;2.88;;;27.60;50.80;;;29.33;33.27;168302.19;4960635;28;20031;-84
2022/05/15 11:39:14;;;;;;;9.38;2.85;;;27.60;52.80;;;28.80;32.10;168160.44;4961771;28;20062;-87
2022/05/15 11:41:43;;;;;;;7.75;2.85;;;27.60;50.60;;;29.33;32.20;168302.19;4976312;28;20035;-84
2022/05/15 11:44:18;;;;;;;8.95;2.75;;;27.70;51.10;;;29.56;30.73;168365.66;4975248;28;20031;-85
2022/05/15 11:46:47;;;;;;;12.90;3.42;;;27.90;49.70;;;29.49;30.53;168346.75;4975647;28;20042;-85
2022/05/15 11:49:29;;;;;;;13.90;3.92;;;28.00;49.60;;;29.01;31.34;168217.09;4976100;28;20034;-85
2022/05/15 11:52:11;;;;;;;7.30;2.72;;;27.60;49.70;;;29.45;30.89;168335.94;4975273;28;20494;-87
2022/05/15 11:54:55;;;;;;;12.88;2.95;;;27.80;49.40;;;29.85;29.54;168441.31;4961076;28;20062;-85
2022/05/15 11:57:45;;;;;;;10.23;3.28;;;28.20;48.00;;;29.27;29.69;168287.34;4959563;28;20034;-88
2022/05/15 12:00:31;;;;;;;7.25;2.45;;;28.10;47.40;;;29.97;29.40;168475.06;4958834;28;20511;-84
2022/05/15 12:02:59;;;;;;;7.75;3.00;;;28.30;47.60;;;30.22;30.61;168542.59;4976426;28;20035;-85
2022/05/15 12:06:03;;;;;;;7.13;2.90;;;28.50;49.20;;;30.47;28.57;168607.50;4961921;28;20031;-85
2022/05/15 12:08:37;;;;;;;7.47;2.88;;;28.70;46.70;;;30.62;28.07;168649.38;4977200;28;20038;-83
2022/05/15 12:11:18;;;;;;;10.13;2.83;;;29.00;45.70;;;30.61;27.49;168645.31;4960332;28;20027;-86
2022/05/15 12:13:46;;;;;;;12.35;2.95;;;29.00;45.30;;;30.88;28.28;168716.91;4974846;28;20126;-87
2022/05/15 12:16:52;;;;;;;11.82;3.20;;;29.10;46.00;;;30.66;30.11;168658.84;4958789;28;20057;-85
2022/05/15 12:19:40;;;;;;;9.45;2.60;;;29.00;46.90;;;30.79;28.05;168695.28;4959547;28;20031;-86
2022/05/15 12:22:13;;;;;;;7.35;2.42;;;29.10;45.80;;;31.12;27.16;168781.78;4979117;28;20069;-85
2022/05/15 12:24:47;;;;;;;10.30;2.88;;;29.30;45.20;;;31.10;26.47;168776.41;4969912;28;20168;-86
2022/05/15 12:27:24;;;;;;;5.25;2.63;;;29.30;44.10;;;31.46;26.87;168872.34;4971373;28;20055;-85
2022/05/15 12:30:18;;;;;;;8.57;2.53;;;29.50;44.90;;;31.25;26.60;168818.28;4991258;28;20024;-84
2022/05/15 12:33:05;;;;;;;10.57;2.67;;;29.60;44.40;;;29.97;28.18;168473.72;4976560;28;20058;-84
2022/05/15 12:35:39;;;;;;;6.72;2.80;;;29.10;44.10;;;30.46;28.92;168606.16;4985570;28;20028;-84
2022/05/15 12:38:21;;;;;;;9.18;2.88;;;28.90;46.90;;;30.23;27.60;168543.94;4979907;28;20027;-83
2022/05/15 12:41:03;;;;;;;8.45;2.92;;;28.80;44.90;;;29.95;28.14;168469.69;4980349;28;20023;-85
2022/05/15 12:43:56;;;;;;;8.93;3.05;;;28.50;45.50;;;30.34;27.76;168573.69;4976517;28;20092;-84
2022/05/15 12:46:52;;;;;;;9.70;2.90;;;28.60;45.20;;;30.78;27.08;168692.59;4974493;28;20035;-87
2022/05/15 12:49:42;;;;;;;9.00;2.42;;;28.90;44.80;;;30.56;28.33;168633.19;4967897;28;20034;-85
2022/05/15 12:52:29;;;;;;;8.80;2.65;;;28.90;46.70;;;30.55;28.07;168629.09;4984307;28;20151;-84
2022/05/15 12:55:03;;;;;;;6.20;2.42;;;28.90;45.40;;;30.58;27.79;168637.19;4954349;29;20028;-87
2022/05/15 12:57:30;;;;;;;7.20;2.17;;;28.90;45.50;;;30.70;27.41;168670.97;4966577;28;20031;-86
2022/05/15 12:59:57;;;;;;;8.80;2.53;;;28.90;45.20;;;30.23;28.29;168545.31;4972453;28;20014;-83
2022/05/15 13:02:33;;;;;;;7.70;2.25;;;28.80;45.30;;;30.13;28.50;168516.94;4972411;28;20073;-86
2022/05/15 13:05:28;;;;;;;5.50;2.15;;;28.70;46.00;;;30.74;27.87;168681.78;4961995;28;20038;-86
2022/05/15 13:08:06;;;;;;;6.03;2.25;;;29.00;45.00;;;30.75;27.02;168684.50;4956206;29;20042;-84
2022/05/15 13:10:42;;;;;;;6.13;2.70;;;29.00;44.80;;;30.47;27.09;168607.50;4964850;28;20023;-90
2022/05/15 13:13:08;;;;;;;5.30;2.20;;;28.80;44.00;;;30.78;27.90;168691.25;4963776;28;20090;-85
2022/05/15 13:15:35;;;;;;;9.05;2.55;;;29.10;45.80;;;31.08;27.31;168771.03;4978534;28;20039;-87
2022/05/15 13:18:11;;;;;;;8.73;2.55;;;29.30;44.90;;;30.80;27.06;168696.63;4964324;28;20036;-86
2022/05/15 13:20:44;;;;;;;13.25;2.78;;;29.00;44.50;;;30.27;28.64;168556.13;4963606;28;20140;-87
2022/05/15 13:23:12;;;;;;;10.65;2.40;;;28.80;46.30;;;30.38;27.59;168583.09;4964277;28;20408;-86
2022/05/15 13:25:47;;;;;;;8.00;2.25;;;28.70;45.30;;;30.05;28.38;168496.72;4962367;28;20031;-86
2022/05/15 13:28:15;;;;;;;8.73;2.47;;;28.40;46.10;;;30.34;26.90;168573.69;4967068;28;20027;-86
2022/05/15 13:30:42;;;;;;;9.98;2.40;;;28.60;44.20;;;30.33;27.29;168572.34;4962453;28;20086;-88
2022/05/15 13:33:20;;;;;;;9.15;2.92;;;28.60;44.80;;;29.76;28.11;168419.63;4961909;28;20031;-83
2022/05/15 13:35:52;;;;;;;6.43;1.92;;;28.40;45.10;;;29.47;29.09;168341.38;4976962;28;20027;-84
2022/05/15 13:44:18;;;;;;;8.73;2.28;;;28.40;45.40;;;29.81;28.50;168431.81;4966098;29;20038;-86
2022/05/15 13:47:16;;;;;;;9.10;2.78;;;28.20;46.30;;;29.87;28.38;168446.72;4966022;28;20500;-84
2022/05/15 13:49:52;;;;;;;8.32;2.70;;;28.30;46.10;;;30.13;28.38;168518.28;4965904;28;20023;-85
2022/05/15 13:52:37;;;;;;;10.68;2.70;;;28.30;46.60;;;29.84;28.71;168438.59;4964198;28;20033;-85
2022/05/15 13:55:13;;;;;;;6.90;2.47;;;28.30;46.70;;;30.04;28.38;168492.63;4964785;28;20123;-85
2022/05/15 13:57:57;;;;;;;5.97;2.30;;;28.20;46.00;;;30.02;28.52;168487.25;4965414;28;20031;-84
2022/05/15 14:00:31;;;;;;;8.55;2.78;;;28.20;46.40;;;29.70;29.24;168403.44;4964673;28;20035;-85
2022/05/15 14:03:09;;;;;;;6.82;2.47;;;28.30;46.20;;;29.88;29.28;168449.41;4964192;28;20035;-85
2022/05/15 14:05:41;;;;;;;7.53;2.47;;;28.30;46.90;;;29.93;29.09;168464.25;4963384;28;20126;-84
2022/05/15 14:08:20;;;;;;;6.32;2.80;;;28.30;46.50;;;29.45;29.84;168335.94;4964406;28;20480;-86
2022/05/15 14:11:03;;;;;;;9.48;3.00;;;28.00;47.20;;;29.44;29.41;168333.28;4975460;28;20058;-84
2022/05/15 14:13:51;;;;;;;8.13;2.75;;;28.00;47.10;;;29.23;29.95;168276.50;4985221;28;20446;-84
2022/05/15 14:16:25;;;;;;;6.18;2.60;;;27.70;47.60;;;29.44;29.50;168331.91;4983292;28;20033;-85
2022/05/15 14:18:52;;;;;;;7.25;2.38;;;27.60;47.20;;;29.23;29.77;168276.50;4984196;28;20034;-88
2022/05/15 14:21:27;;;;;;;6.95;2.70;;;27.60;47.80;;;28.91;30.23;168190.09;4984049;28;20037;-86
2022/05/15 14:23:54;;;;;;;9.00;3.50;;;27.50;47.90;;;29.12;31.23;168248.13;4983042;28;20046;-85
2022/05/15 14:26:22;;;;;;;6.78;2.17;;;27.60;49.30;;;29.29;31.35;168294.09;4983884;28;20031;-81
2022/05/15 14:28:50;;;;;;;7.75;2.90;;;27.60;49.70;;;29.35;30.11;168308.94;4986945;28;20038;-85
2022/05/15 14:31:22;;;;;;;11.98;3.33;;;27.80;48.00;;;29.27;29.79;168287.34;4984559;28;20046;-87
2022/05/15 14:33:48;;;;;;;7.45;2.75;;;27.70;47.70;;;28.94;30.96;168198.19;4984297;28;20061;-82
2022/05/15 14:36:21;;;;;;;9.07;2.33;;;27.40;48.90;;;28.93;30.24;168195.53;4984161;28;20035;-85
2022/05/15 14:38:48;;;;;;;7.00;2.75;;;27.50;48.40;;;29.23;29.89;168277.84;4984361;28;20030;-83
2022/05/15 14:41:14;;;;;;;8.48;2.50;;;27.60;47.80;;;29.52;30.10;168353.50;4984743;28;20031;-84
2022/05/15 14:43:40;;;;;;;8.43;2.20;;;27.80;48.20;;;29.30;30.24;168295.44;4986063;28;20027;-86
2022/05/15 14:46:23;;;;;;;10.70;2.70;;;27.70;48.40;;;29.13;31.99;168249.50;4987393;28;20027;-82
2022/05/15 14:48:52;;;;;;;9.20;2.97;;;27.60;49.90;;;28.96;30.51;168203.63;4987956;28;20062;-82
2022/05/15 14:51:24;;;;;;;8.95;2.70;;;27.50;48.40;;;29.13;30.74;168250.84;4988878;28;20041;-81
2022/05/15 14:53:56;;;;;;;9.10;2.75;;;27.60;48.50;;;28.92;31.52;168194.19;4989749;28;20030;-81
2022/05/15 14:56:25;;;;;;;6.07;2.65;;;27.40;49.30;;;28.69;30.88;168132.06;4990860;28;20061;-84
2022/05/15 14:59:14;;;;;;;10.38;2.58;;;27.20;48.90;;;28.43;32.16;168063.19;4987460;28;20038;-85
2022/05/15 15:01:41;;;;;;;9.82;2.95;;;27.00;50.00;;;28.37;32.12;168047.00;4981242;28;20467;-84
2022/05/15 15:04:11;;;;;;;6.70;2.72;;;26.90;50.30;;;28.46;32.13;168069.94;4998029;28;20113;-86
2022/05/15 15:06:37;;;;;;;12.27;2.75;;;26.90;50.30;;;27.96;32.10;167937.69;4982961;28;20352;-84
2022/05/15 15:09:06;;;;;;;9.63;2.67;;;26.60;49.80;;;27.87;32.60;167912.03;4983125;28;20019;-84
2022/05/15 15:11:43;;;;;;;11.07;2.92;;;26.50;50.60;;;27.97;32.28;167938.97;4965948;28;20050;-84
2022/05/15 15:14:10;;;;;;;8.70;2.40;;;26.50;50.20;;;27.78;32.33;167889.06;4961243;28;20028;-83
2022/05/15 15:16:45;;;;;;;9.82;2.70;;;26.40;50.40;;;27.79;33.40;167891.78;4959130;28;20102;-84
2022/05/15 15:19:17;;;;;;;5.28;2.30;;;26.30;51.30;;;28.00;33.00;167948.44;4974401;28;20074;-80
2022/05/15 15:21:44;;;;;;;7.50;2.50;;;26.50;51.30;;;28.31;31.93;168029.47;4973284;28;20075;-82
2022/05/15 15:24:15;;;;;;;7.82;2.35;;;26.60;50.20;;;28.31;31.89;168029.47;4974094;28;20062;-80
2022/05/15 15:26:42;;;;;;;9.32;3.25;;;26.70;50.00;;;28.29;32.22;168024.09;4972514;28;20019;-84
2022/05/15 15:29:11;;;;;;;8.18;2.53;;;26.70;50.90;;;28.45;32.07;168067.28;4973314;28;20041;-84
2022/05/15 15:31:38;;;;;;;10.40;3.13;;;26.90;50.10;;;28.37;32.56;168045.66;4988191;28;20137;-81
2022/05/15 15:34:10;;;;;;;8.73;2.53;;;26.70;52.80;;;28.07;33.19;167967.38;4970057;28;20027;-82
2022/05/15 15:36:41;;;;;;;8.95;2.65;;;26.50;51.20;;;27.45;33.28;167800.09;4977620;28;20038;-87
2022/05/15 15:39:08;;;;;;;8.40;2.78;;;26.20;51.40;;;27.24;33.11;167746.06;4961693;28;20050;-84
2022/05/15 15:41:37;;;;;;;7.75;2.15;;;25.80;51.10;;;26.83;33.27;167634.13;4961941;28;20059;-84
2022/05/15 15:44:05;;;;;;;10.82;3.40;;;25.50;50.80;;;26.78;33.95;167621.94;4960540;28;20066;-86
2022/05/15 15:46:32;;;;;;;8.50;3.30;;;25.40;52.00;;;26.83;34.13;167635.50;4961936;28;20038;-82
2022/05/15 15:48:59;;;;;;;6.35;2.40;;;25.30;52.40;;;26.50;34.54;167546.44;4960292;28;20322;-84
2022/05/15 15:51:40;;;;;;;5.40;2.45;;;25.20;52.20;;;26.19;35.46;167465.59;4963361;28;20062;-85
2022/05/15 15:54:15;;;;;;;7.30;2.80;;;25.00;52.70;;;26.23;34.76;167473.66;4962402;28;20074;-85
2022/05/15 15:56:43;;;;;;;10.25;2.75;;;25.00;52.70;;;26.17;34.37;167460.16;4961197;28;20058;-85
2022/05/15 15:59:09;;;;;;;7.43;2.58;;;24.90;52.60;;;26.24;34.37;167476.31;4967239;28;20031;-85
2022/05/15 16:01:40;;;;;;;8.68;2.67;;;24.90;52.50;;;26.37;34.32;167512.72;4966677;28;20046;-84
2022/05/15 16:04:10;;;;;;;9.18;2.60;;;24.90;52.60;;;26.32;34.33;167497.91;4980537;28;20170;-85
2022/05/15 16:06:36;;;;;;;6.72;2.58;;;24.90;53.00;;;26.13;34.96;167449.34;4963575;28;20047;-84
2022/05/15 16:09:04;;;;;;;7.60;2.88;;;24.80;52.70;;;26.00;35.03;167412.94;4966578;28;20023;-83
2022/05/15 16:11:40;;;;;;;7.88;2.65;;;24.80;53.00;;;26.07;34.81;167431.84;4986843;28;20026;-83
2022/05/15 16:14:10;;;;;;;9.15;2.58;;;24.70;53.10;;;25.89;35.46;167384.63;4989724;28;20102;-82
2022/05/15 16:16:36;;;;;;;10.18;2.72;;;24.60;53.50;;;25.75;35.14;167345.56;4988567;28;20031;-85
2022/05/15 16:19:02;;;;;;;6.35;2.25;;;24.50;53.30;;;25.73;35.64;167341.50;4983277;28;20090;-82
2022/05/15 16:21:45;;;;;;;8.85;2.65;;;24.40;53.80;;;25.72;35.70;167338.81;4986479;28;20372;-84
2022/05/15 16:24:22;;;;;;;8.00;2.50;;;24.40;53.60;;;25.60;35.42;167307.81;5002446;28;20018;-85
2022/05/15 16:26:55;;;;;;;8.15;3.30;;;24.30;53.30;;;25.54;35.42;167291.66;4983744;28;20037;-83
2022/05/15 16:29:21;;;;;;;7.68;2.95;;;24.30;53.60;;;25.56;36.47;167295.66;4982438;28;20023;-85
2022/05/15 16:31:49;;;;;;;8.98;3.10;;;24.30;54.40;;;25.37;35.42;167245.78;4980570;28;20091;-85
2022/05/15 16:34:15;;;;;;;9.43;5.50;;;24.20;53.60;;;25.24;36.22;167210.75;4981745;28;20042;-84
2022/05/15 16:36:41;;;;;;;8.15;3.15;;;24.10;54.00;;;25.18;35.95;167194.59;4982345;28;20039;-84
2022/05/15 16:39:07;;;;;;;10.00;3.25;;;24.00;54.20;;;25.15;36.13;167186.50;4981817;28;20023;-85
2022/05/15 16:41:34;;;;;;;8.77;3.17;;;23.90;54.30;;;24.99;36.31;167144.75;4985358;28;20049;-83
2022/05/15 16:44:00;;;;;;;8.75;3.60;;;23.90;54.30;;;24.93;37.20;167128.59;4988815;28;20043;-86
2022/05/15 16:46:26;;;;;;;7.68;2.78;;;23.80;55.20;;;24.94;36.81;167131.28;4983569;28;20035;-85
2022/05/15 16:48:53;;;;;;;7.82;2.67;;;23.80;55.40;;;24.95;36.96;167132.59;4983361;28;20475;-84
2022/05/15 16:51:20;;;;;;;12.23;2.78;;;23.80;54.90;;;24.93;36.73;167127.22;4983664;28;20022;-84
2022/05/15 16:53:47;;;;;;;7.70;2.80;;;23.80;55.10;;;24.89;36.91;167117.78;4990582;28;20038;-84
2022/05/15 16:56:14;;;;;;;6.38;2.72;;;23.70;55.00;;;24.83;36.68;167100.28;4980243;28;20027;-83
2022/05/15 16:58:42;;;;;;;8.57;3.10;;;23.60;55.00;;;24.70;36.88;167066.56;4980745;28;20057;-82
2022/05/15 17:01:08;;;;;;;9.82;3.20;;;23.60;55.00;;;24.74;36.70;167076.00;4981634;28;20054;-84
2022/05/15 17:03:34;;;;;;;11.13;3.15;;;23.60;55.10;;;24.64;36.33;167051.75;4979038;28;20031;-83
2022/05/15 17:06:01;;;;;;;9.90;2.92;;;23.50;54.50;;;24.59;37.11;167038.25;4979202;28;20058;-85
2022/05/15 17:08:27;;;;;;;6.45;2.60;;;23.50;55.20;;;24.62;37.39;167046.38;4984785;28;20048;-84
2022/05/15 17:10:54;;;;;;;4.78;2.30;;;23.50;55.60;;;24.57;37.69;167031.53;4987324;28;20043;-86
2022/05/15 17:13:21;;;;;;;11.30;2.90;;;23.40;56.00;;;24.51;37.25;167015.38;4963960;28;20030;-84
2022/05/15 17:15:47;;;;;;;6.93;2.38;;;23.30;55.80;;;24.45;37.42;166999.22;4963616;28;20039;-84
2022/05/15 17:18:14;;;;;;;10.93;3.03;;;23.30;55.80;;;24.39;37.53;166984.41;4978456;28;20427;-83
2022/05/15 17:20:41;;;;;;;9.32;3.17;;;23.30;55.80;;;24.35;37.39;166972.28;4963731;28;20027;-82
2022/05/15 17:23:09;;;;;;;8.20;2.67;;;23.20;55.40;;;24.36;39.55;166976.34;4964093;28;20023;-82
2022/05/15 17:25:36;;;;;;;7.78;2.60;;;23.20;57.30;;;24.34;37.81;166969.63;4964605;28;20078;-85
2022/05/15 17:28:09;;;;;;;9.90;2.50;;;23.20;56.20;;;24.27;37.99;166952.13;4963734;28;20020;-85
2022/05/15 17:36:06;;;;;;;6.38;2.72;;;23.10;56.40;;;24.24;38.55;166942.69;4961817;29;20054;-81
2022/05/15 17:38:33;;;;;;;7.68;2.63;;;23.10;56.80;;;24.16;37.75;166922.47;4961344;28;20046;-81
2022/05/15 17:40:59;;;;;;;10.10;2.70;;;23.00;56.10;;;24.14;38.04;166918.41;4960932;28;20476;-82
2022/05/15 17:43:25;;;;;;;6.65;2.72;;;23.00;56.30;;;24.06;38.00;166895.47;4961199;28;20039;-82
2022/05/15 17:45:51;;;;;;;11.85;3.60;;;22.90;56.60;;;24.07;38.45;166898.19;4976104;28;20027;-82
2022/05/15 17:48:18;;;;;;;8.32;2.80;;;22.90;56.90;;;23.95;38.77;166865.88;4961594;28;20387;-83
2022/05/15 17:50:47;;;;;;;9.85;3.03;;;22.80;57.00;;;23.92;38.94;166857.81;4960911;28;20028;-83
2022/05/15 17:53:15;;;;;;;9.35;2.95;;;22.80;57.10;;;23.90;38.44;166852.38;4961015;28;20031;-83
2022/05/15 17:55:41;;;;;;;7.70;2.90;;;22.80;56.80;;;23.82;38.96;166832.22;4959750;28;20023;-82
2022/05/15 17:58:08;;;;;;;10.80;3.30;;;22.70;57.10;;;23.71;39.04;166802.59;4960220;28;20066;-84
2022/05/15 18:00:39;;;;;;;8.52;2.75;;;22.70;57.10;;;23.69;39.08;166795.88;4959300;28;20505;-84
2022/05/15 18:03:06;;;;;;;9.77;2.20;;;22.60;57.40;;;23.72;39.40;166803.94;4958822;28;20032;-83
2022/05/15 18:05:36;;;;;;;8.45;2.47;;;22.60;57.80;;;23.61;39.22;166777.00;4958537;28;20034;-84
2022/05/15 18:08:02;;;;;;;9.75;2.90;;;22.50;57.90;;;23.59;39.59;166770.28;4958112;28;20114;-83
2022/05/15 18:10:30;;;;;;;9.98;2.90;;;22.50;58.20;;;23.52;39.21;166752.78;4967146;28;20027;-85
2022/05/15 18:12:59;;;;;;;6.15;2.85;;;22.40;57.60;;;23.49;39.54;166743.38;4982820;28;20109;-82
2022/05/15 18:15:27;;;;;;;6.88;2.92;;;22.40;57.80;;;23.43;39.21;166728.56;4985913;28;20061;-83
2022/05/15 18:17:53;;;;;;;9.90;2.70;;;22.30;57.50;;;23.47;38.97;166738.00;4981334;28;20058;-84
2022/05/15 18:20:19;;;;;;;9.40;2.50;;;22.40;57.30;;;23.40;39.40;166720.50;4978049;28;20329;-85
2022/05/15 18:22:46;;;;;;;9.32;2.88;;;22.30;57.50;;;23.38;39.44;166715.03;4978210;28;20045;-82
2022/05/15 18:25:13;;;;;;;5.35;2.38;;;22.30;57.40;;;23.41;38.79;166723.16;4977609;28;20027;-84
2022/05/15 18:27:38;;;;;;;7.70;2.50;;;22.30;57.40;;;23.36;39.34;166709.66;4983101;28;20027;-82
2022/05/15 18:30:06;;;;;;;7.15;2.50;;;22.20;58.00;;;23.20;39.92;166665.25;4997757;28;20037;-84
2022/05/15 18:32:32;;;;;;;7.72;2.67;;;22.20;58.20;;;23.18;39.48;166659.88;4981105;28;20065;-82
2022/05/15 18:35:00;;;;;;;8.10;2.53;;;22.10;58.10;;;23.10;39.72;166639.66;4982225;28;20363;-83
2022/05/15 18:37:26;;;;;;;7.70;2.53;;;22.10;58.40;;;23.10;39.53;166641.03;4981387;28;20098;-82
2022/05/15 18:39:52;;;;;;;9.40;2.92;;;22.00;58.10;;;23.03;39.63;166620.81;4981976;28;20039;-83
2022/05/15 18:42:20;;;;;;;9.30;3.05;;;21.90;58.30;;;23.03;39.16;166620.81;4981634;28;20034;-84
2022/05/15 18:44:50;;;;;;;9.18;2.70;;;21.90;57.90;;;22.97;39.55;166604.69;5002297;28;20027;-85
2022/05/15 18:47:28;;;;;;;7.35;2.63;;;21.80;58.00;;;22.83;39.43;166567.03;4992321;28;20074;-83
2022/05/15 18:56:00;;;;;;;7.30;2.83;;;21.60;58.10;;;22.72;39.55;166538.75;4986198;28;20281;-84
2022/05/15 18:58:29;;;;;;;7.30;2.63;;;21.60;58.10;;;22.62;39.84;166510.44;4997946;28;20046;-85
2022/05/15 19:00:57;;;;;;;8.75;3.28;;;21.50;58.70;;;22.41;40.42;166456.59;4982918;28;20039;-84
2022/05/15 19:03:23;;;;;;;12.88;2.80;;;21.40;59.00;;;22.38;39.83;166447.25;4981609;28;20031;-84
2022/05/15 19:05:51;;;;;;;15.55;3.10;;;21.30;58.20;;;22.39;39.81;166449.91;4981815;28;20138;-84
2022/05/15 19:08:17;;;;;;;12.93;2.88;;;21.40;58.30;;;22.37;39.53;166445.88;4979246;28;20411;-82
2022/05/15 19:10:45;;;;;;;6.05;3.17;;;21.30;58.00;;;22.34;39.85;166437.81;4971754;28;20069;-81
2022/05/15 19:13:11;;;;;;;8.73;2.80;;;21.30;58.40;;;22.17;40.45;166392.06;4982030;28;20015;-81
2022/05/15 19:15:38;;;;;;;5.70;2.40;;;21.10;59.00;;;22.03;40.52;166355.75;4971498;29;20049;-81
2022/05/15 19:18:05;;;;;;;7.32;2.65;;;21.00;59.00;;;21.87;40.60;166311.28;4984728;28;20064;-83
2022/05/15 19:20:31;;;;;;;8.10;2.97;;;20.80;59.20;;;21.75;41.14;166279.03;4969195;28;20357;-84
2022/05/15 19:22:57;;;;;;;10.27;3.15;;;20.70;59.50;;;21.73;41.01;166273.66;4980758;28;20693;-85
2022/05/15 19:25:23;;;;;;;7.70;2.78;;;20.60;59.60;;;21.61;41.15;166242.72;4962333;28;20031;-88
2022/05/15 19:27:49;;;;;;;6.88;3.20;;;20.60;59.60;;;21.58;41.34;166233.34;4978643;28;20395;-86
2022/05/15 19:30:15;;;;;;;9.25;3.00;;;20.50;59.70;;;21.52;41.21;166218.50;4963053;28;20031;-84
2022/05/15 19:32:41;;;;;;;13.93;3.33;;;20.40;60.00;;;21.47;41.62;166206.44;4978808;28;20051;-84
2022/05/15 19:35:09;;;;;;;12.93;2.95;;;20.40;60.40;;;21.48;41.51;166207.78;4962121;28;20122;-85
2022/05/15 19:37:35;;;;;;;9.00;3.10;;;20.40;60.10;;;21.51;41.21;166215.84;4962628;28;20046;-84
2022/05/15 19:40:01;;;;;;;10.15;3.00;;;20.40;60.40;;;21.37;42.04;166179.53;4975877;28;20031;-87
2022/05/15 19:42:31;;;;;;;8.90;2.60;;;20.30;60.90;;;21.31;42.11;166163.41;4961856;28;20035;-84
2022/05/15 19:44:57;;;;;;;7.40;2.47;;;20.20;61.10;;;21.22;42.53;166137.88;4975528;28;20062;-83
2022/05/15 19:47:27;;;;;;;9.48;2.92;;;20.20;61.60;;;21.17;42.74;166125.75;4975571;28;20145;-86
2022/05/15 19:49:53;;;;;;;12.45;3.22;;;20.10;61.70;;;21.14;43.20;166117.69;4959800;28;20035;-84
2022/05/15 19:52:19;;;;;;;8.85;3.00;;;20.10;62.30;;;21.05;43.29;166093.44;4961942;28;20023;-84
2022/05/15 19:54:45;;;;;;;10.02;3.45;;;20.00;62.80;;;21.01;43.99;166082.69;4960554;28;20043;-82
2022/05/15 19:57:11;;;;;;;8.95;2.95;;;19.90;63.20;;;21.08;43.85;166101.50;4961250;28;20035;-82
2022/05/15 19:59:41;;;;;;;6.13;2.63;;;19.90;63.20;;;21.08;44.13;166100.16;4961284;29;20024;-83
2022/05/15 20:02:10;;;;;;;10.75;2.85;;;20.00;63.50;;;21.10;44.23;166106.91;4963026;28;20469;-83
2022/05/15 20:12:54;;;;;;;9.45;3.10;;;19.70;65.20;;;20.62;46.04;165977.84;4981640;28;20399;-85
2022/05/15 20:15:21;;;;;;;8.85;3.00;;;19.60;66.00;;;20.49;46.90;165945.59;4980924;28;20074;-83
2022/05/15 20:17:47;;;;;;;10.15;2.95;;;19.50;67.10;;;20.39;47.62;165918.72;4979016;28;20058;-85